Time;durP1;ratioP1;P1;durP2;ratioP2;P2;SDS_P1;SDS_P2;PMS_P1;PMS_P2;Temp;Humidity;BMP_temperature;BMP_pressure;BME280_temperature;BME280_humidity;BME280_pressure;Samples;Min_cycle;Max_cycle;Signal;HPM_P1;HPM_P2
2022/09/05 00:02:19;;;;;;;0.30;0.30;;;;;;;20.42;99.11;100006.00;5072322;28;20376;-69
2022/09/05 00:04:53;;;;;;;0.40;0.40;;;;;;;20.41;99.16;100001.75;5070088;28;20619;-69
2022/09/05 00:07:29;;;;;;;0.50;0.50;;;;;;;20.25;99.98;100001.81;5071649;28;20207;-70
2022/09/05 00:10:07;;;;;;;0.20;0.20;;;;;;;20.16;100.00;100001.53;5071612;28;20202;-69
2022/09/05 00:12:37;;;;;;;0.30;0.30;;;;;;;20.20;100.00;100008.19;5071967;28;20638;-69
2022/09/05 00:15:19;;;;;;;0.27;0.27;;;;;;;20.17;100.00;100018.78;5072088;28;20204;-69
2022/09/05 00:18:01;;;;;;;0.33;0.33;;;;;;;20.14;100.00;100018.97;5071949;28;20224;-70
2022/09/05 00:20:36;;;;;;;0.30;0.30;;;;;;;20.18;100.00;100016.13;5071429;28;20210;-69
2022/09/05 00:23:15;;;;;;;0.20;0.20;;;;;;;20.11;100.00;100024.38;5071916;28;20192;-69
2022/09/05 00:26:03;;;;;;;0.33;0.33;;;;;;;19.95;100.00;100023.59;5070926;28;20205;-70
2022/09/05 00:28:42;;;;;;;0.40;0.40;;;;;;;19.92;100.00;100004.66;5071202;28;20202;-69
2022/09/05 00:31:42;;;;;;;0.27;0.27;;;;;;;19.93;100.00;100027.13;5070722;28;20205;-69
2022/09/05 00:34:26;;;;;;;0.40;0.40;;;;;;;19.97;100.00;100022.56;5060310;28;20206;-69
2022/09/05 00:36:55;;;;;;;0.30;0.30;;;;;;;19.89;100.00;100020.44;5071580;28;20224;-69
2022/09/05 00:39:26;;;;;;;0.83;0.83;;;;;;;19.80;100.00;100000.16;5072723;28;20673;-69
2022/09/05 00:41:57;;;;;;;0.40;0.40;;;;;;;19.88;100.00;100013.56;5071553;28;20204;-69
2022/09/05 00:44:27;;;;;;;0.40;0.40;;;;;;;19.90;100.00;100013.47;5071774;28;20204;-70
2022/09/05 00:47:02;;;;;;;0.33;0.33;;;;;;;19.92;100.00;100016.81;5071675;28;20201;-69
2022/09/05 00:49:37;;;;;;;0.50;0.50;;;;;;;19.83;100.00;100013.00;5069196;28;20206;-69
2022/09/05 00:52:10;;;;;;;0.40;0.40;;;;;;;19.84;100.00;100006.00;5070120;28;20196;-70
2022/09/05 00:55:00;;;;;;;0.30;0.30;;;;;;;19.95;100.00;100013.19;5072242;28;20203;-68
2022/09/05 00:57:52;;;;;;;0.30;0.30;;;;;;;19.99;100.00;100009.50;5070119;28;20611;-69
2022/09/05 01:00:21;;;;;;;0.40;0.40;;;;;;;19.92;100.00;100007.25;5071227;28;20213;-70
2022/09/05 01:03:08;;;;;;;0.60;0.60;;;;;;;19.83;100.00;99984.38;5071175;28;20490;-69
2022/09/05 01:05:56;;;;;;;0.30;0.30;;;;;;;19.84;100.00;100001.63;5068765;28;20567;-70
2022/09/05 01:08:40;;;;;;;0.40;0.40;;;;;;;19.86;100.00;100005.00;5071773;28;20242;-70
2022/09/05 01:11:17;;;;;;;0.40;0.40;;;;;;;19.76;100.00;100001.28;5071297;28;20201;-69
2022/09/05 01:13:50;;;;;;;0.30;0.30;;;;;;;19.71;100.00;100005.06;5070645;28;20200;-70
2022/09/05 01:16:24;;;;;;;0.40;0.40;;;;;;;19.76;100.00;100005.63;5070036;28;20197;-70
2022/09/05 01:19:05;;;;;;;0.27;0.27;;;;;;;19.77;100.00;100008.13;5070751;28;20307;-69
2022/09/05 01:21:54;;;;;;;0.40;0.40;;;;;;;19.79;100.00;100008.88;5070928;28;20247;-70
2022/09/05 01:24:45;;;;;;;0.33;0.33;;;;;;;19.75;100.00;100007.38;5070043;28;20197;-70
2022/09/05 01:27:49;;;;;;;0.30;0.30;;;;;;;19.75;100.00;100010.00;5070145;28;20268;-70
2022/09/05 01:30:21;;;;;;;0.33;0.33;;;;;;;19.73;100.00;100009.25;5069946;28;20214;-70
2022/09/05 01:32:58;;;;;;;0.30;0.30;;;;;;;19.78;100.00;100012.41;5070885;28;20568;-70
2022/09/05 01:36:04;;;;;;;0.40;0.40;;;;;;;19.80;100.00;100005.38;5070794;28;20206;-70
2022/09/05 01:38:42;;;;;;;0.40;0.40;;;;;;;19.72;100.00;100007.56;5070398;28;20237;-69
2022/09/05 01:41:20;;;;;;;0.43;0.43;;;;;;;19.70;100.00;100004.22;5069459;28;20707;-70
2022/09/05 01:44:10;;;;;;;0.40;0.40;;;;;;;19.68;100.00;100008.66;5072512;28;20679;-70
2022/09/05 01:46:43;;;;;;;0.40;0.40;;;;;;;19.72;100.00;100004.97;5071049;28;20203;-70
2022/09/05 01:49:23;;;;;;;0.40;0.40;;;;;;;19.79;100.00;100014.09;5070499;28;20219;-69
2022/09/05 01:52:10;;;;;;;0.40;0.40;;;;;;;19.86;100.00;100012.81;5070615;28;20701;-70
2022/09/05 01:54:46;;;;;;;0.40;0.40;;;;;;;19.91;100.00;100008.16;5068935;28;20206;-69
2022/09/05 01:57:24;;;;;;;0.40;0.40;;;;;;;19.90;100.00;100016.91;5070431;28;20706;-69
2022/09/05 01:59:58;;;;;;;1.07;0.50;;;;;;;19.94;100.00;100017.56;5070793;28;20201;-70
2022/09/05 02:02:42;;;;;;;0.30;0.30;;;;;;;19.95;100.00;100013.19;5070602;28;20686;-70
2022/09/05 02:05:23;;;;;;;0.30;0.30;;;;;;;19.70;100.00;100000.78;5070496;28;20619;-69
2022/09/05 02:08:12;;;;;;;0.60;0.60;;;;;;;19.75;100.00;100002.19;5069230;28;20194;-70
2022/09/05 02:11:01;;;;;;;0.60;0.60;;;;;;;19.71;100.00;100005.06;5070272;28;20197;-70
2022/09/05 02:13:42;;;;;;;0.40;0.40;;;;;;;19.68;100.00;99990.47;5070158;28;20264;-69
2022/09/05 02:16:19;;;;;;;0.50;0.50;;;;;;;19.67;100.00;100001.81;5070180;28;20745;-69
2022/09/05 02:18:54;;;;;;;0.30;0.30;;;;;;;19.69;100.00;100001.69;5072228;28;20217;-69
2022/09/05 02:21:32;;;;;;;0.60;0.60;;;;;;;19.58;100.00;99994.50;5074137;28;20214;-69
2022/09/05 02:24:16;;;;;;;0.40;0.40;;;;;;;19.65;100.00;99995.84;5073678;28;20235;-70
2022/09/05 02:26:53;;;;;;;0.30;0.30;;;;;;;19.65;100.00;99998.44;5073599;28;20204;-69
2022/09/05 02:29:27;;;;;;;0.30;0.30;;;;;;;19.66;100.00;100002.72;5074003;28;20202;-69
2022/09/05 02:32:01;;;;;;;0.30;0.30;;;;;;;19.71;100.00;100005.88;5074098;28;20194;-69
2022/09/05 02:34:39;;;;;;;0.40;0.40;;;;;;;19.66;100.00;100007.94;5073799;28;20213;-69
2022/09/05 02:37:17;;;;;;;0.40;0.40;;;;;;;19.64;100.00;100003.75;5074362;28;20208;-69
2022/09/05 02:39:48;;;;;;;0.27;0.27;;;;;;;19.70;100.00;100008.59;5075061;28;20669;-70
2022/09/05 02:42:23;;;;;;;0.33;0.33;;;;;;;19.69;100.00;100012.09;5073975;28;20210;-69
2022/09/05 02:45:09;;;;;;;0.40;0.40;;;;;;;19.73;100.00;100009.25;5074005;28;20200;-69
2022/09/05 02:47:42;;;;;;;0.50;0.50;;;;;;;19.74;100.00;100016.09;5073670;28;20191;-69
2022/09/05 02:50:28;;;;;;;0.30;0.30;;;;;;;19.76;100.00;100011.69;5073764;28;20575;-69
2022/09/05 02:52:57;;;;;;;0.40;0.40;;;;;;;19.75;100.00;100017.78;5073278;28;20194;-70
2022/09/05 02:55:34;;;;;;;0.40;0.40;;;;;;;19.60;100.00;99995.28;5073750;28;20228;-70
2022/09/05 02:58:24;;;;;;;0.30;0.30;;;;;;;19.73;100.00;100017.06;5075218;28;20223;-70
2022/09/05 03:01:01;;;;;;;0.20;0.20;;;;;;;19.76;100.00;100019.47;5072194;28;20207;-70
2022/09/05 03:03:36;;;;;;;0.30;0.30;;;;;;;19.76;100.00;100022.09;5073068;28;20238;-70
2022/09/05 03:06:14;;;;;;;0.40;0.40;;;;;;;19.77;100.00;100021.13;5072352;28;20668;-69
2022/09/05 03:09:07;;;;;;;0.30;0.30;;;;;;;19.82;100.00;100026.94;5073099;28;20662;-69
2022/09/05 03:12:16;;;;;;;0.30;0.30;;;;;;;19.81;100.00;100022.63;5074101;28;20564;-70
2022/09/05 03:15:17;;;;;;;0.30;0.30;;;;;;;19.94;100.00;100035.78;5065653;28;20628;-69
2022/09/05 03:18:29;;;;;;;0.37;0.37;;;;;;;19.97;100.00;100037.38;5072948;28;20222;-69
2022/09/05 03:21:47;;;;;;;0.27;0.27;;;;;;;20.03;100.00;100040.47;5044478;28;20650;-69
2022/09/05 03:24:40;;;;;;;0.30;0.30;;;;;;;20.10;100.00;100043.50;5008146;28;20204;-70
2022/09/05 03:27:40;;;;;;;0.30;0.30;;;;;;;20.08;100.00;100045.38;4982318;28;20638;-70
2022/09/05 03:30:14;;;;;;;0.30;0.30;;;;;;;20.03;100.00;100052.63;5070531;28;20207;-70
2022/09/05 03:33:17;;;;;;;0.40;0.40;;;;;;;20.04;100.00;100044.72;5071227;28;20281;-70
2022/09/05 03:36:22;;;;;;;0.47;0.47;;;;;;;20.10;100.00;100041.75;5072293;28;20210;-70
2022/09/05 03:39:24;;;;;;;0.30;0.30;;;;;;;20.15;100.00;100046.69;5066051;28;20222;-69
2022/09/05 03:42:13;;;;;;;0.30;0.30;;;;;;;20.19;100.00;100053.41;5072744;28;20197;-69
2022/09/05 03:45:00;;;;;;;0.50;0.50;;;;;;;20.21;100.00;100041.13;5072741;28;20211;-70
2022/09/05 03:47:54;;;;;;;0.30;0.30;;;;;;;20.20;100.00;100044.66;5073144;28;20210;-70
2022/09/05 03:50:33;;;;;;;0.40;0.40;;;;;;;20.14;100.00;100051.06;5078073;28;20204;-70
2022/09/05 03:53:34;;;;;;;0.40;0.40;;;;;;;20.14;100.00;100045.00;5072661;28;20206;-69
2022/09/05 03:56:18;;;;;;;0.30;0.30;;;;;;;20.17;100.00;100043.06;5071238;28;20704;-69
2022/09/05 03:59:08;;;;;;;0.43;0.43;;;;;;;20.23;100.00;100057.47;5072664;28;20268;-70
2022/09/05 04:01:41;;;;;;;0.47;0.47;;;;;;;20.23;100.00;100060.09;5069910;28;20203;-70
2022/09/05 04:04:20;;;;;;;0.40;0.40;;;;;;;20.15;100.00;100047.53;5071914;28;20210;-69
2022/09/05 04:06:52;;;;;;;0.40;0.40;;;;;;;20.26;100.00;100071.19;5068602;28;20210;-70
2022/09/05 04:09:26;;;;;;;0.40;0.40;;;;;;;20.30;100.00;100069.25;5071438;28;20202;-70
2022/09/05 04:11:58;;;;;;;0.40;0.40;;;;;;;20.32;100.00;100070.81;5071912;28;20209;-70
2022/09/05 04:14:43;;;;;;;0.30;0.30;;;;;;;20.35;100.00;100059.41;5072325;28;20201;-70
2022/09/05 04:17:22;;;;;;;0.40;0.40;;;;;;;20.31;100.00;100076.97;5070532;28;20253;-69
2022/09/05 04:19:54;;;;;;;3.00;0.60;;;;;;;20.34;100.00;100083.78;5070902;28;20577;-70
2022/09/05 04:22:28;;;;;;;0.40;0.40;;;;;;;20.26;100.00;100084.22;5071917;28;20206;-70
2022/09/05 04:25:04;;;;;;;0.30;0.30;;;;;;;20.30;100.00;100082.25;5074632;28;20210;-70
2022/09/05 04:27:50;;;;;;;0.30;0.30;;;;;;;20.37;100.00;100078.38;5072043;28;20205;-70
2022/09/05 04:30:31;;;;;;;0.60;0.60;;;;;;;20.41;100.00;100083.31;5071367;28;20200;-69
2022/09/05 04:33:05;;;;;;;0.40;0.40;;;;;;;20.35;100.00;100080.25;5071988;28;20209;-70
2022/09/05 04:35:46;;;;;;;0.30;0.30;;;;;;;20.40;100.00;100091.22;5071361;28;20196;-70
2022/09/05 04:38:15;;;;;;;0.40;0.40;;;;;;;20.47;100.00;100095.13;5071627;28;20227;-70
2022/09/05 04:40:50;;;;;;;0.30;0.30;;;;;;;20.39;100.00;100099.94;5069558;28;20200;-70
2022/09/05 04:43:31;;;;;;;0.40;0.40;;;;;;;20.21;100.00;100104.47;5071295;28;20206;-70
2022/09/05 04:46:08;;;;;;;0.43;0.43;;;;;;;20.03;100.00;100107.28;5071649;28;20259;-70
2022/09/05 04:48:41;;;;;;;0.40;0.40;;;;;;;20.13;100.00;100106.66;5070299;28;20280;-69
2022/09/05 04:51:10;;;;;;;0.30;0.30;;;;;;;20.18;100.00;100111.59;5069574;28;20203;-70
2022/09/05 04:53:56;;;;;;;0.40;0.40;;;;;;;20.23;100.00;100117.38;5070667;28;20289;-69
2022/09/05 04:56:28;;;;;;;0.40;0.40;;;;;;;20.22;100.00;100118.31;5071512;28;20258;-70
2022/09/05 04:59:01;;;;;;;0.30;0.30;;;;;;;20.26;100.00;100127.59;5070766;28;20225;-70
2022/09/05 05:01:33;;;;;;;0.30;0.30;;;;;;;20.30;100.00;100126.53;5070667;28;20200;-69
2022/09/05 05:04:07;;;;;;;0.30;0.30;;;;;;;20.27;100.00;100129.31;5070663;28;20205;-70
2022/09/05 05:06:39;;;;;;;0.33;0.33;;;;;;;20.19;100.00;100121.09;5070881;28;20192;-69
2022/09/05 05:09:14;;;;;;;0.40;0.40;;;;;;;20.16;100.00;100121.28;5071396;28;20284;-70
2022/09/05 05:11:51;;;;;;;0.33;0.33;;;;;;;20.21;100.00;100132.25;5070891;28;20203;-69
2022/09/05 05:14:24;;;;;;;0.40;0.40;;;;;;;20.20;100.00;100127.97;5070593;28;20217;-70
2022/09/05 05:16:57;;;;;;;0.40;0.40;;;;;;;20.33;100.00;100139.38;5070638;28;20209;-70
2022/09/05 05:19:30;;;;;;;0.30;0.30;;;;;;;20.38;100.00;100132.16;5069931;28;20238;-70
2022/09/05 05:22:00;;;;;;;0.30;0.30;;;;;;;20.41;100.00;100134.56;5065937;28;20200;-70
2022/09/05 05:24:30;;;;;;;0.40;0.40;;;;;;;20.35;100.00;100135.78;5068996;28;20218;-70
2022/09/05 05:27:08;;;;;;;0.37;0.37;;;;;;;20.38;100.00;100142.56;5066064;28;20211;-69
2022/09/05 05:29:47;;;;;;;0.37;0.37;;;;;;;20.32;100.00;100142.94;5066903;28;20203;-69
2022/09/05 05:32:21;;;;;;;0.40;0.40;;;;;;;20.28;99.74;100141.44;5067110;28;20203;-69
2022/09/05 05:34:52;;;;;;;0.33;0.33;;;;;;;20.28;98.57;100137.06;5069950;28;20225;-69
2022/09/05 05:37:24;;;;;;;0.30;0.30;;;;;;;20.27;99.14;100144.94;5068064;28;20195;-69
2022/09/05 05:40:02;;;;;;;0.30;0.30;;;;;;;20.35;99.62;100156.63;5069711;28;20226;-69
2022/09/05 05:42:29;;;;;;;0.37;0.37;;;;;;;20.39;98.52;100149.44;5070257;28;20203;-70
2022/09/05 05:44:59;;;;;;;0.30;0.30;;;;;;;20.40;98.19;100149.34;5069617;28;20206;-69
2022/09/05 05:47:29;;;;;;;0.30;0.30;;;;;;;20.47;96.15;100152.44;5070021;28;20207;-69
2022/09/05 05:50:14;;;;;;;0.40;0.40;;;;;;;20.60;96.93;100152.56;5070807;28;20209;-69
2022/09/05 05:53:05;;;;;;;0.30;0.30;;;;;;;20.80;96.59;100155.66;5069938;28;20207;-70
2022/09/05 05:55:56;;;;;;;0.23;0.23;;;;;;;21.09;95.08;100160.88;5062354;28;20716;-69
2022/09/05 05:58:50;;;;;;;0.30;0.30;;;;;;;21.34;92.54;100172.31;5068467;28;20576;-69
2022/09/05 06:01:50;;;;;;;0.20;0.20;;;;;;;21.51;92.35;100168.66;5068737;28;20573;-70
2022/09/05 06:05:02;;;;;;;0.40;0.40;;;;;;;21.70;89.18;100173.56;5068319;28;20200;-68
2022/09/05 06:07:36;;;;;;;0.30;0.30;;;;;;;21.92;89.28;100174.72;5066954;28;20200;-67
2022/09/05 06:10:40;;;;;;;0.30;0.30;;;;;;;22.19;87.76;100179.09;5068201;28;20572;-67
2022/09/05 06:13:39;;;;;;;0.30;0.30;;;;;;;22.31;84.82;100186.13;5068610;28;20215;-68
2022/09/05 06:16:27;;;;;;;0.30;0.30;;;;;;;22.37;85.61;100190.94;5068728;28;20678;-67
2022/09/05 06:19:37;;;;;;;0.30;0.30;;;;;;;22.43;84.65;100170.47;5069785;28;20231;-68
2022/09/05 06:22:34;;;;;;;0.30;0.30;;;;;;;22.52;83.73;100183.88;5068294;28;20208;-68
2022/09/05 06:25:32;;;;;;;0.20;0.20;;;;;;;22.47;83.92;100182.41;5068470;28;20196;-68
2022/09/05 06:28:11;;;;;;;0.20;0.20;;;;;;;22.58;82.97;100191.28;5067720;28;20204;-67
2022/09/05 06:30:47;;;;;;;0.67;0.67;;;;;;;22.72;83.44;100186.84;5069104;28;20203;-71
2022/09/05 06:33:28;;;;;;;0.20;0.20;;;;;;;22.79;82.41;100175.03;5069717;28;20207;-71
2022/09/05 06:36:13;;;;;;;0.30;0.30;;;;;;;23.13;83.43;100180.56;5069433;28;20207;-70
2022/09/05 06:38:59;;;;;;;0.30;0.30;;;;;;;23.14;80.33;100185.66;5069186;28;20311;-69
2022/09/05 06:41:39;;;;;;;0.37;0.37;;;;;;;23.20;79.76;100187.03;5069253;28;20284;-68
2022/09/05 06:44:22;;;;;;;0.30;0.30;;;;;;;23.34;79.16;100192.13;5070908;28;20945;-69
2022/09/05 06:46:51;;;;;;;0.30;0.30;;;;;;;23.59;79.06;100193.91;5068583;28;20292;-70
2022/09/05 06:49:22;;;;;;;0.40;0.40;;;;;;;23.78;77.54;100183.78;5069580;28;20627;-71
2022/09/05 06:52:13;;;;;;;0.20;0.20;;;;;;;24.01;76.71;100183.75;5068452;28;20200;-72
2022/09/05 06:55:05;;;;;;;0.20;0.20;;;;;;;24.34;76.48;100197.97;5064783;28;20207;-73
2022/09/05 06:57:54;;;;;;;0.20;0.20;;;;;;;24.67;74.85;100205.94;5067902;28;20201;-73
2022/09/05 07:00:24;;;;;;;0.20;0.20;;;;;;;24.79;74.66;100205.00;5071065;28;20987;-70
2022/09/05 07:03:06;;;;;;;0.73;0.73;;;;;;;24.54;75.13;100210.44;5067880;28;20211;-70
2022/09/05 07:05:39;;;;;;;0.20;0.20;;;;;;;24.80;74.00;100206.69;5073096;28;20219;-70
2022/09/05 07:08:20;;;;;;;0.57;0.57;;;;;;;25.06;73.77;100207.34;5074682;28;20230;-71
2022/09/05 07:10:57;;;;;;;0.87;0.87;;;;;;;25.31;71.81;100206.25;5073555;28;20652;-72
2022/09/05 07:13:32;;;;;;;0.20;0.20;;;;;;;25.23;70.98;100208.66;5072629;28;20641;-71
2022/09/05 07:16:10;;;;;;;0.20;0.20;;;;;;;25.32;69.62;100207.94;5072345;28;20652;-70
2022/09/05 07:18:45;;;;;;;0.20;0.20;;;;;;;25.24;71.16;100194.56;5072336;28;20226;-71
2022/09/05 07:21:20;;;;;;;0.30;0.30;;;;;;;25.62;70.93;100213.44;5071015;28;20265;-68
2022/09/05 07:23:54;;;;;;;0.20;0.20;;;;;;;25.85;70.84;100222.13;5068429;28;20207;-70
2022/09/05 07:26:23;;;;;;;0.20;0.20;;;;;;;25.91;68.34;100222.44;5066214;28;20213;-70
2022/09/05 07:28:54;;;;;;;0.10;0.10;;;;;;;25.85;66.86;100212.41;5068709;28;20204;-69
2022/09/05 07:31:25;;;;;;;0.10;0.10;;;;;;;26.01;67.33;100204.97;5071640;28;20196;-70
2022/09/05 07:34:07;;;;;;;0.20;0.20;;;;;;;26.09;66.00;100223.59;5063643;28;20209;-69
2022/09/05 07:36:40;;;;;;;0.30;0.30;;;;;;;26.27;65.02;100217.84;5066027;28;20214;-71
2022/09/05 07:39:10;;;;;;;0.20;0.20;;;;;;;26.35;65.32;100218.03;5067472;28;20224;-70
2022/09/05 07:41:41;;;;;;;0.20;0.20;;;;;;;26.59;66.50;100216.00;5068548;28;20568;-69
2022/09/05 07:44:14;;;;;;;0.20;0.20;;;;;;;26.72;64.61;100213.97;5063731;28;20208;-69
2022/09/05 07:46:45;;;;;;;0.20;0.20;;;;;;;26.69;64.70;100218.69;5065741;28;20204;-70
2022/09/05 07:49:15;;;;;;;0.20;0.20;;;;;;;26.81;64.41;100210.63;5067491;28;20236;-70
2022/09/05 07:51:50;;;;;;;0.20;0.20;;;;;;;26.92;63.77;100200.00;5068819;28;20212;-69
2022/09/05 07:54:24;;;;;;;0.20;0.20;;;;;;;27.09;63.26;100191.50;5066110;28;20200;-70
2022/09/05 07:56:54;;;;;;;0.20;0.20;;;;;;;27.37;60.95;100187.31;5071006;28;20216;-71
2022/09/05 07:59:22;;;;;;;0.20;0.20;;;;;;;27.70;59.55;100201.97;5069560;28;20227;-70
2022/09/05 08:01:53;;;;;;;0.10;0.10;;;;;;;27.81;60.11;100199.25;5071734;28;20199;-70
2022/09/05 08:04:26;;;;;;;0.10;0.10;;;;;;;27.74;59.46;100192.84;5071861;28;20212;-70
2022/09/05 08:06:55;;;;;;;0.17;0.17;;;;;;;27.80;62.12;100199.38;5063360;28;20228;-70
2022/09/05 08:09:27;;;;;;;0.10;0.10;;;;;;;27.97;59.92;100199.53;5069151;28;20207;-69
2022/09/05 08:12:00;;;;;;;0.10;0.10;;;;;;;27.97;61.28;100188.16;5067486;28;20674;-72
2022/09/05 08:14:41;;;;;;;0.10;0.10;;;;;;;27.82;57.92;100187.72;5070888;28;20208;-71
2022/09/05 08:17:13;;;;;;;0.20;0.20;;;;;;;27.63;58.26;100187.69;5070107;28;20200;-70
2022/09/05 08:19:54;;;;;;;0.10;0.10;;;;;;;27.44;60.06;100177.09;5070151;28;20699;-70
2022/09/05 08:22:25;;;;;;;0.10;0.10;;;;;;;27.29;61.69;100170.53;5068246;28;20199;-70
2022/09/05 08:25:07;;;;;;;0.10;0.10;;;;;;;27.31;61.42;100174.69;5068397;28;20642;-69
2022/09/05 08:27:45;;;;;;;0.10;0.10;;;;;;;27.24;59.61;100172.72;5072358;28;20656;-70
2022/09/05 08:30:13;;;;;;;0.17;0.17;;;;;;;27.26;59.12;100173.41;5073089;28;20199;-70
2022/09/05 08:32:46;;;;;;;0.10;0.10;;;;;;;27.25;61.42;100177.00;5072369;28;20207;-69
2022/09/05 08:35:22;;;;;;;0.17;0.17;;;;;;;27.09;60.17;100183.63;5072820;28;20200;-69
2022/09/05 08:37:51;;;;;;;0.10;0.10;;;;;;;26.87;61.54;100154.84;5072945;28;20195;-69
2022/09/05 08:40:29;;;;;;;0.13;0.13;;;;;;;26.99;60.33;100174.84;5073168;28;20220;-69
2022/09/05 08:43:03;;;;;;;0.20;0.20;;;;;;;27.05;58.62;100163.78;5072541;28;20679;-69
2022/09/05 08:45:39;;;;;;;0.10;0.10;;;;;;;27.04;62.67;100169.19;5072372;28;20234;-69
2022/09/05 08:48:19;;;;;;;0.23;0.23;;;;;;;27.24;61.94;100159.56;5072280;28;20237;-69
2022/09/05 08:51:19;;;;;;;0.17;0.17;;;;;;;27.30;61.37;100161.66;5069371;28;20196;-69
2022/09/05 08:54:01;;;;;;;0.10;0.10;;;;;;;27.22;61.11;100159.69;5060507;28;20243;-69
2022/09/05 08:56:38;;;;;;;0.10;0.10;;;;;;;27.32;59.22;100159.72;5071066;28;20228;-69
2022/09/05 08:59:23;;;;;;;0.20;0.20;;;;;;;27.64;58.87;100149.84;5072574;28;20202;-69
2022/09/05 09:02:16;;;;;;;0.20;0.20;;;;;;;27.93;60.13;100160.41;5070668;28;20218;-69
2022/09/05 09:04:48;;;;;;;0.10;0.10;;;;;;;28.22;61.79;100155.16;5070597;28;20227;-69
2022/09/05 09:07:29;;;;;;;0.10;0.10;;;;;;;28.39;60.76;100157.09;5071565;28;20295;-70
2022/09/05 09:10:02;;;;;;;0.10;0.10;;;;;;;28.40;57.93;100142.94;5070672;28;20275;-70
2022/09/05 09:13:07;;;;;;;0.20;0.20;;;;;;;28.65;57.05;100144.94;5071068;28;20253;-69
2022/09/05 09:15:41;;;;;;;0.10;0.10;;;;;;;28.68;57.01;100147.34;5071256;28;20199;-71
2022/09/05 09:18:13;;;;;;;0.87;0.30;;;;;;;28.75;57.49;100148.44;5071444;28;20196;-70
2022/09/05 09:20:50;;;;;;;0.10;0.10;;;;;;;28.85;56.82;100143.94;5071414;28;20771;-70
2022/09/05 09:23:44;;;;;;;0.10;0.10;;;;;;;28.99;54.79;100151.38;5071280;28;20229;-69
2022/09/05 09:26:15;;;;;;;0.20;0.20;;;;;;;29.12;54.36;100154.50;5071248;28;20203;-70
2022/09/05 09:28:47;;;;;;;0.20;0.20;;;;;;;29.06;52.93;100147.19;5070465;28;20231;-69
2022/09/05 09:31:28;;;;;;;0.10;0.10;;;;;;;29.00;52.98;100141.66;5071131;28;20265;-70
2022/09/05 09:34:13;;;;;;;0.10;0.10;;;;;;;29.05;55.20;100150.78;5066411;28;20282;-69
2022/09/05 09:37:03;;;;;;;0.10;0.10;;;;;;;28.99;55.03;100148.75;5070996;28;20204;-69
2022/09/05 09:39:41;;;;;;;0.10;0.10;;;;;;;28.74;56.54;100146.75;5069971;28;20664;-68
2022/09/05 09:42:29;;;;;;;0.20;0.20;;;;;;;28.44;58.02;100149.56;5069348;28;20663;-69
2022/09/05 09:45:16;;;;;;;0.10;0.10;;;;;;;28.06;57.18;100147.81;5070178;28;20208;-69
2022/09/05 09:48:06;;;;;;;0.10;0.10;;;;;;;27.71;58.98;100135.16;5064305;28;20599;-69
2022/09/05 09:50:47;;;;;;;0.13;0.13;;;;;;;27.89;59.42;100146.66;5065221;28;20201;-69
2022/09/05 09:53:42;;;;;;;0.10;0.10;;;;;;;27.93;58.91;100144.59;5069995;28;20211;-69
2022/09/05 09:56:31;;;;;;;0.20;0.20;;;;;;;27.75;57.78;100152.38;5069961;28;20235;-69
2022/09/05 09:59:19;;;;;;;0.20;0.20;;;;;;;27.19;60.26;100136.25;5068753;28;20599;-69
2022/09/05 10:01:54;;;;;;;0.17;0.17;;;;;;;27.23;60.50;100140.31;5063212;28;20821;-70
2022/09/05 10:04:43;;;;;;;0.20;0.20;;;;;;;27.31;58.52;100147.50;5069557;28;20203;-70
2022/09/05 10:07:39;;;;;;;0.20;0.20;;;;;;;26.71;58.71;100140.47;5069672;28;20207;-69
2022/09/05 10:10:34;;;;;;;0.20;0.20;;;;;;;26.99;60.74;100138.00;5067660;28;20204;-69
2022/09/05 10:13:47;;;;;;;0.20;0.20;;;;;;;27.14;57.51;100139.28;5067575;28;20204;-70
2022/09/05 10:17:03;;;;;;;0.93;0.83;;;;;;;27.49;58.54;100143.31;5044052;28;20235;-71
2022/09/05 10:20:00;;;;;;;0.20;0.20;;;;;;;27.55;57.49;100135.69;4981840;28;20211;-73
2022/09/05 10:22:44;;;;;;;0.15;0.15;;;;;;;27.41;54.27;100143.94;5065428;28;20538;-67
2022/09/05 10:25:30;;;;;;;0.10;0.10;;;;;;;27.45;53.68;100147.16;5066766;28;20204;-67
2022/09/05 10:28:14;;;;;;;0.10;0.10;;;;;;;27.46;56.67;100131.25;5063292;28;20595;-66
2022/09/05 10:30:46;;;;;;;0.10;0.10;;;;;;;27.64;56.40;100137.50;5064907;28;20935;-70
2022/09/05 10:33:28;;;;;;;0.10;0.10;;;;;;;27.60;53.24;100141.38;5071175;28;20204;-70
2022/09/05 10:36:16;;;;;;;0.10;0.10;;;;;;;27.53;52.24;100115.69;5066673;28;20192;-69
2022/09/05 10:38:46;;;;;;;0.10;0.10;;;;;;;28.03;52.64;100138.34;5067302;28;20679;-73
2022/09/05 10:41:18;;;;;;;0.10;0.10;;;;;;;28.24;52.63;100125.03;5071808;28;20608;-72
2022/09/05 10:43:49;;;;;;;0.13;0.13;;;;;;;28.52;55.05;100125.97;5071717;28;20200;-72
2022/09/05 10:46:30;;;;;;;0.20;0.20;;;;;;;28.69;52.63;100127.06;5071689;28;20216;-72
2022/09/05 10:49:04;;;;;;;0.10;0.10;;;;;;;28.63;52.43;100118.69;5072936;28;20203;-72
2022/09/05 10:51:39;;;;;;;0.10;0.10;;;;;;;28.47;55.43;100118.47;5070256;28;20249;-72
2022/09/05 10:54:40;;;;;;;0.10;0.10;;;;;;;28.66;54.70;100117.59;5067612;28;20210;-73
2022/09/05 10:57:21;;;;;;;0.20;0.20;;;;;;;28.76;51.75;100113.13;5066232;28;20228;-73
2022/09/05 11:00:05;;;;;;;0.10;0.10;;;;;;;28.74;51.64;100104.53;5070559;28;20207;-71
2022/09/05 11:02:38;;;;;;;0.20;0.20;;;;;;;28.86;51.84;100103.34;5072536;28;20196;-72
2022/09/05 11:05:16;;;;;;;0.10;0.10;;;;;;;28.85;50.56;100093.78;5073053;28;20647;-71
2022/09/05 11:07:52;;;;;;;0.10;0.10;;;;;;;28.70;49.18;100097.88;5068772;28;20297;-72
2022/09/05 11:10:24;;;;;;;0.10;0.10;;;;;;;28.79;51.58;100097.00;5070172;28;20602;-71
2022/09/05 11:13:20;;;;;;;0.20;0.20;;;;;;;28.88;49.76;100096.16;5071648;28;20211;-71
2022/09/05 11:15:58;;;;;;;0.10;0.10;;;;;;;28.86;47.34;100061.13;5069413;28;20215;-71
2022/09/05 11:19:07;;;;;;;0.20;0.20;;;;;;;28.81;51.38;100083.66;5067705;28;20206;-72
2022/09/05 11:21:51;;;;;;;0.10;0.10;;;;;;;28.87;52.27;100078.63;5068949;28;20314;-72
2022/09/05 11:24:30;;;;;;;0.20;0.20;;;;;;;29.00;51.82;100073.00;5073050;28;20215;-71
2022/09/05 11:27:01;;;;;;;1.60;1.50;;;;;;;29.04;52.02;100069.94;5067090;28;20630;-68
2022/09/05 11:29:36;;;;;;;0.10;0.10;;;;;;;29.11;51.08;100070.97;5072131;28;20204;-69
2022/09/05 11:32:25;;;;;;;0.20;0.20;;;;;;;29.08;50.24;100065.19;5071516;28;20196;-68
2022/09/05 11:35:18;;;;;;;0.20;0.20;;;;;;;28.73;50.80;100058.00;5073855;28;20687;-69
2022/09/05 11:38:16;;;;;;;0.20;0.20;;;;;;;28.83;49.43;100068.50;5069941;28;20283;-68
2022/09/05 11:40:57;;;;;;;0.10;0.10;;;;;;;28.40;48.72;100063.81;5059859;28;20240;-68
2022/09/05 11:44:00;;;;;;;0.10;0.10;;;;;;;28.49;50.58;100052.38;5067809;28;20199;-67
2022/09/05 11:46:31;;;;;;;0.10;0.10;;;;;;;28.56;50.89;100053.47;5071829;28;20204;-68
2022/09/05 11:49:19;;;;;;;0.10;0.10;;;;;;;28.75;50.29;100057.84;5072252;28;20204;-69
2022/09/05 11:52:17;;;;;;;0.10;0.10;;;;;;;28.99;50.13;100056.34;5071243;28;20207;-68
2022/09/05 11:55:20;;;;;;;0.10;0.10;;;;;;;28.61;48.06;100045.94;5069845;28;20572;-68
2022/09/05 11:58:02;;;;;;;0.10;0.10;;;;;;;28.56;49.15;100053.47;5071326;28;20565;-68
2022/09/05 12:00:38;;;;;;;0.17;0.17;;;;;;;28.69;48.39;100048.72;5067681;28;20761;-68
2022/09/05 12:03:57;;;;;;;0.10;0.10;;;;;;;28.69;47.70;100043.44;5071531;28;20200;-68
2022/09/05 12:07:03;;;;;;;0.20;0.20;;;;;;;28.73;47.73;100043.97;5071746;28;20200;-68
2022/09/05 12:09:44;;;;;;;0.10;0.10;;;;;;;28.75;49.96;100048.13;5072258;28;20282;-69
2022/09/05 12:12:25;;;;;;;0.10;0.10;;;;;;;28.66;50.28;100022.59;5071710;28;20211;-69
2022/09/05 12:15:09;;;;;;;0.10;0.10;;;;;;;28.63;49.11;100034.25;5072339;28;20299;-69
2022/09/05 12:17:47;;;;;;;0.20;0.20;;;;;;;28.66;50.14;100038.44;5074289;28;20195;-69
2022/09/05 12:20:21;;;;;;;0.20;0.20;;;;;;;28.70;51.11;100029.25;5072944;28;20277;-71
2022/09/05 12:22:55;;;;;;;0.10;0.10;;;;;;;28.76;49.64;100020.75;5070095;28;20236;-74
2022/09/05 12:25:28;;;;;;;0.17;0.17;;;;;;;28.80;48.75;100005.44;5071171;28;20667;-75
2022/09/05 12:27:59;;;;;;;0.20;0.20;;;;;;;29.02;48.95;100012.94;5071159;28;20588;-74